Flight Track Log - Related Links

Times and Time Zones

All times are in EDT time to prevent confusion due to time zone crossing. See the AWI3594 flight status page for this flight to view local times or setup timezone preferences in your user account.

Time Position Orientation Groundspeed Altitude Reporting Facility
EDT Latitude Longitude Course Direction KTS MPH feet Rate Location/Type
Mon 07:58:44 AM 32.2267 -89.9939 87° East 212 244 33,000  Level Memphis Center
Mon 07:59:00 AM 32.3227 -89.7110 84° East  Level FlightAware Approximate
Mon 07:59:44 AM 32.2453 -89.9103 75° East 214 246 5,700  Level Memphis Center
Mon 08:00:00 AM 32.3326 -89.5920 84° East  Level FlightAware Approximate
Mon 08:00:44 AM 32.2575 -89.8194 81° East 237 273 7,900  Level Memphis Center
Mon 08:01:00 AM 32.3334 -89.4724 90° East  Level FlightAware Approximate
Mon 08:01:44 AM 32.2694 -89.7258 81° East 271 312 9,500  Level Memphis Center
Mon 08:02:00 AM 32.3428 -89.3549 68° East  Level FlightAware Approximate
Mon 08:02:44 AM 32.2836 -89.6225 81° East 297 342 11,500  Level Memphis Center
Mon 08:03:00 AM 32.3549 -89.2370 87° East  Level FlightAware Approximate
Mon 08:03:44 AM 32.2953 -89.5167 83° East 311 358 13,100  Level Memphis Center
Mon 08:04:00 AM 32.3609 -89.1175 87° East  Level FlightAware Approximate
Mon 08:04:44 AM 32.3092 -89.3986 82° East 338 389 14,800  Level Memphis Center
Mon 08:05:44 AM 32.3208 -89.2953 82° East 352 405 16,700 1,600 Climbing Memphis Center
Mon 08:06:44 AM 32.3364 -89.1722 81° East 357 411 18,000 1,350 Climbing Memphis Center
Mon 08:07:44 AM 32.3519 -89.0467 82° East 374 430 19,400 1,300 Climbing Memphis Center
Mon 08:08:44 AM 32.3672 -88.9183 82° East 386 444 20,600 1,250 Climbing Memphis Center
Mon 08:09:44 AM 32.3928 -88.7900 77° East 391 450 21,900 1,100 Climbing Memphis Center
Mon 08:11:44 AM 32.5236 -88.5981 51° Northeast 370 426 23,900 967 Climbing Memphis Center
Mon 08:12:44 AM 32.5953 -88.4956 50° Northeast 382 440 24,800 850 Climbing Memphis Center
Mon 08:13:44 AM 32.6647 -88.3978 50° Northeast 388 447 25,600 781 Climbing Memphis Center
Mon 08:15:33 AM 32.7931 -88.2047 52° Northeast 407 468 27,000 891 Climbing Atlanta Center
Mon 08:17:00 AM 32.8795 -88.0508 50° Northeast  Level FlightAware Approximate
Mon 08:17:33 AM 32.9464 -87.9844 50° Northeast 402 463 29,000  Level Atlanta Center
Mon 08:18:33 AM 33.0033 -87.8928 53° Northeast 397 457 29,700 600 Climbing Atlanta Center
Mon 08:19:33 AM 33.0733 -87.7919 50° Northeast 397 457 30,200 550 Climbing Atlanta Center
Mon 08:20:33 AM 33.1478 -87.6808 51° Northeast 404 465 30,800 267 Climbing Atlanta Center
Mon 08:22:00 AM 33.2347 -87.5235 51° Northeast  Level FlightAware Approximate
Mon 08:22:33 AM 33.2936 -87.4633 51° Northeast 409 471 31,000  Level Atlanta Center
Mon 08:23:33 AM 33.3678 -87.3519 51° Northeast 414 476 31,000  Level Atlanta Center
Mon 08:25:33 AM 33.5133 -87.1333 51° Northeast 414 476 31,000  Level Atlanta Center
Mon 08:26:33 AM 33.5869 -87.0236 51° Northeast 414 476 31,000  Level Atlanta Center
Mon 08:27:33 AM 33.6583 -86.9139 52° Northeast 414 476 31,000  Level Atlanta Center
Mon 08:28:33 AM 33.7358 -86.8117 48° Northeast 414 476 31,000  Level Atlanta Center
Mon 08:29:33 AM 33.8133 -86.7117 47° Northeast 408 470 31,000  Level Atlanta Center
Mon 08:30:33 AM 33.8925 -86.6114 46° Northeast 408 470 31,000  Level Atlanta Center
Mon 08:31:33 AM 33.9719 -86.5111 46° Northeast 408 470 31,000  Level Atlanta Center
Mon 08:33:00 AM 34.0751 -86.3678 49° Northeast  Level FlightAware Approximate
Mon 08:33:33 AM 34.1261 -86.3072 49° Northeast 413 475 31,000  Level Atlanta Center
Mon 08:34:33 AM 34.2031 -86.2064 47° Northeast 413 475 31,000  Level Atlanta Center
Mon 08:35:33 AM 34.2842 -86.1003 47° Northeast 413 475 31,000  Level Atlanta Center
Mon 08:37:00 AM 34.3828 -85.9514 47° Northeast  Level FlightAware Approximate
Mon 08:37:33 AM 34.4439 -85.8925 47° Northeast 413 475 31,000  Level Atlanta Center
Mon 08:38:33 AM 34.5206 -85.7883 48° Northeast 408 470 31,000  Level Atlanta Center
Mon 08:39:33 AM 34.6014 -85.6817 47° Northeast 413 475 31,000  Level Atlanta Center
Mon 08:40:33 AM 34.6822 -85.5744 47° Northeast 413 475 31,000  Level Atlanta Center
Mon 08:41:33 AM 34.7628 -85.4672 48° Northeast 418 481 31,000  Level Atlanta Center
Mon 08:42:33 AM 34.8411 -85.3625 48° Northeast 418 481 31,000  Level Atlanta Center
Mon 08:43:33 AM 34.9194 -85.2572 48° Northeast 418 481 31,000  Level Atlanta Center
Mon 08:44:33 AM 34.9933 -85.1519 49° Northeast 412 474 31,000  Level Atlanta Center
Mon 08:45:33 AM 35.0717 -85.0489 47° Northeast 412 474 31,000 267 Level Atlanta Center
Mon 08:47:00 AM 35.1743 -84.9054 49° Northeast  Level FlightAware Approximate
Mon 08:47:33 AM 35.2233 -84.8422 49° Northeast 412 474 31,800  Level Atlanta Center
Mon 08:48:33 AM 35.2989 -84.7386 48° Northeast 412 474 32,100 400 Climbing Atlanta Center
Mon 08:49:33 AM 35.3747 -84.6322 49° Northeast 412 474 32,600 400 Climbing Atlanta Center
Mon 08:50:33 AM 35.4503 -84.5283 48° Northeast 412 474 32,900 200 Climbing Atlanta Center
Mon 08:51:33 AM 35.5278 -84.4242 48° Northeast 412 474 33,000 50 Climbing Atlanta Center
Mon 08:52:33 AM 35.6033 -84.3147 50° Northeast 412 474 33,000  Level Atlanta Center
Mon 08:53:33 AM 35.6828 -84.2050 48° Northeast 412 474 33,000  Level Atlanta Center
Mon 08:54:33 AM 35.7619 -84.0975 48° Northeast 412 474 33,000  Level Atlanta Center
Mon 08:55:34 AM 35.8414 -83.9875 48° Northeast 412 474 33,000  Level Atlanta Center
Mon 08:56:33 AM 35.9225 -83.8747 48° Northeast 417 480 33,000  Level Atlanta Center
Mon 08:58:33 AM 36.0753 -83.6517 50° Northeast 426 490 33,000  Level Indianapolis Center
Mon 08:59:35 AM 36.1528 -83.5414 49° Northeast 425 489 33,000  Level Indianapolis Center
Mon 09:00:36 AM 36.2386 -83.4222 48° Northeast 421 484 33,000  Level Indianapolis Center
Mon 09:01:38 AM 36.3122 -83.3125 50° Northeast 415 478 33,000  Level Indianapolis Center
Mon 09:02:39 AM 36.3883 -83.2031 49° Northeast 417 480 33,000  Level Indianapolis Center
Mon 09:03:41 AM 36.4778 -83.0736 49° Northeast 423 487 33,000  Level Indianapolis Center
Mon 09:05:00 AM 36.5660 -82.9426 50° Northeast  Level FlightAware Approximate
Mon 09:07:48 AM 36.7886 -82.6200 50° Northeast 437 503 33,000  Level Indianapolis Center
Mon 09:10:00 AM 36.8917 -82.3638 63° Northeast  Level Estimated
Mon 09:12:00 AM 37.0330 -82.2417 50° Northeast  Level FlightAware Approximate
Mon 09:12:57 AM 37.1814 -82.0356 64° Northeast 422 486 33,000  Level Indianapolis Center
Mon 09:13:00 AM 37.0996 -82.1411 50° Northeast  Level FlightAware Approximate
Mon 09:13:58 AM 37.2581 -81.9217 50° Northeast 426 490 33,000  Level Indianapolis Center
Mon 09:15:00 AM 37.3469 -81.7886 50° Northeast 427 491 33,000  Level Indianapolis Center
Mon 09:16:02 AM 37.4219 -81.6761 50° Northeast 421 484 33,000  Level Indianapolis Center
Mon 09:17:00 AM 37.2160 -81.5442 63° Northeast  Level Estimated
Mon 09:17:04 AM 37.4958 -81.5611 51° Northeast 422 486 33,000  Level Indianapolis Center
Mon 09:18:00 AM 37.2618 -81.4265 64° Northeast  Level Estimated
Mon 09:18:49 AM 37.6208 -81.3733 50° Northeast 427 491 33,000  Level Washington Center
Mon 09:19:50 AM 37.6972 -81.2586 50° Northeast 415 478 33,000  Level Washington Center
Mon 09:20:48 AM 37.7692 -81.1458 51° Northeast 415 478 33,000  Level Washington Center
Mon 09:21:48 AM 37.8214 -81.0128 64° Northeast 410 472 33,000  Level Washington Center
Mon 09:22:49 AM 37.8667 -80.8819 66° East 410 472 33,000  Level Washington Center
Mon 09:23:49 AM 37.9169 -80.7328 67° East 410 472 33,000 -248 Level Washington Center
Mon 09:24:50 AM 37.9622 -80.5989 67° East 410 472 32,500 -800 Descending Washington Center
Mon 09:26:49 AM 38.0528 -80.3228 67° East 415 478 30,600 -981 Descending Washington Center
Mon 09:28:24 AM 38.1258 -80.0969 68° East 442 509 29,000 -992 Descending Indianapolis Center
Mon 09:28:50 AM 38.1467 -80.0489 61° Northeast 435 501 28,600 -1,000 Descending Washington Center
Mon 09:29:48 AM 38.1917 -79.9061 68° East 435 501 27,600 -1,017 Descending Washington Center
Mon 09:30:48 AM 38.2361 -79.7658 68° East 435 501 26,600 -585 Descending Washington Center
Mon 09:32:32 AM 38.3089 -79.5317 68° East 404 465 26,000 -217 Descending Indianapolis Center
Mon 09:33:34 AM 38.3531 -79.3992 67° East 412 474 26,000  Level Indianapolis Center
Mon 09:33:49 AM 38.3731 -79.3525 61° Northeast 406 467 26,000  Level Washington Center
Mon 09:34:50 AM 38.4147 -79.2167 69° East 406 467 26,000 -300 Level Washington Center
Mon 09:36:00 AM 38.4575 -79.0657 70° East  Level FlightAware Approximate
Mon 09:36:49 AM 38.4892 -78.9444 70° East 406 467 25,100  Level Washington Center
Mon 09:38:00 AM 38.4989 -78.7828 74° East  Level FlightAware Approximate
Mon 09:38:50 AM 38.5275 -78.6836 74° East 391 450 22,300  Level Washington Center
Mon 09:39:50 AM 38.5475 -78.5517 79° East 391 450 21,100 -1,240 Descending Washington Center
Mon 09:40:51 AM 38.5694 -78.4250 77° East 385 443 19,800 -1,373 Descending Washington Center
Mon 09:41:48 AM 38.5867 -78.3142 79° East 353 406 18,400 -1,525 Descending Washington Center
Mon 09:42:49 AM 38.6650 -78.2586 29° Northeast 291 335 16,800 -1,621 Descending Washington Center
Mon 09:44:42 AM 38.7833 -78.1500 36° Northeast 318 366 13,700 -950 Descending Potomac TRACON
Mon 09:46:49 AM 38.6933 -77.9936 126° Southeast 229 264 13,000 -223 Descending Washington Center
Mon 09:47:50 AM 38.7142 -77.8906 75° East 258 297 13,000 -298 Level Washington Center
Mon 09:48:50 AM 38.7556 -77.7958 61° Northeast 276 318 12,400 -1,081 Descending Washington Center
Mon 09:50:31 AM 38.8500 -77.6333 53° Northeast 283 326 10,100 -1,267 Descending Potomac TRACON
Mon 09:51:31 AM 38.8833 -77.5500 63° Northeast 265 305 9,000 -1,000 Descending Potomac TRACON
Mon 09:52:37 AM 38.9000 -77.4667 76° East 233 268 8,000 -900 Descending Potomac TRACON
Mon 09:53:31 AM 38.9000 -77.4000 90° East 190 219 7,200 -1,053 Descending Potomac TRACON
Mon 09:54:31 AM 38.8667 -77.3500 131° Southeast 188 216 6,000 -626 Descending Potomac TRACON
Mon 09:55:26 AM 38.8500 -77.3000 113° Southeast 190 219 6,000 -568 Level Potomac TRACON
Mon 09:57:20 AM 38.8000 -77.1833 119° Southeast 182 209 4,400 -690 Descending Potomac TRACON
Mon 09:58:20 AM 38.7667 -77.1333 131° Southeast 185 213 4,000 -211 Descending Potomac TRACON
Mon 09:59:14 AM 38.7333 -77.1167 159° South 190 219 4,000 -105 Level Potomac TRACON
Mon 10:00:14 AM 38.6667 -77.1167 180° South 186 214 3,800 -714 Descending Potomac TRACON
Mon 10:01:20 AM 38.6500 -77.0667 113° Southeast 186 214 2,500 -600 Descending Potomac TRACON
Mon 10:03:14 AM 38.7333 -77.0333 17° North 188 216 2,000 -263 Descending Potomac TRACON

Login

Don't have an account? Register now (free) for customized features, flight alerts, and more!